createdAt,value
2023-03-03T00:00:48.987Z,3.45
2023-03-03T00:03:19.295Z,3.45
2023-03-03T00:05:45.799Z,3.46
2023-03-03T00:08:12.719Z,3.42
2023-03-03T00:10:40.136Z,3.46
2023-03-03T00:13:15.223Z,3.47
2023-03-03T00:15:41.776Z,3.49
2023-03-03T00:18:18.919Z,3.52
2023-03-03T00:21:01.004Z,3.53
2023-03-03T00:23:39.522Z,3.48
2023-03-03T00:26:34.049Z,3.52
2023-03-03T00:29:01.915Z,3.58
2023-03-03T00:31:36.339Z,3.54
2023-03-03T00:34:18.379Z,3.49
2023-03-03T00:36:44.964Z,3.49
2023-03-03T00:39:31.503Z,3.46
2023-03-03T00:41:59.726Z,3.43
2023-03-03T00:44:38.312Z,3.42
2023-03-03T00:47:31.844Z,3.42
2023-03-03T00:50:29.878Z,3.38
2023-03-03T00:53:35.749Z,3.37
2023-03-03T00:56:02.275Z,3.38
2023-03-03T00:58:29.462Z,3.33
2023-03-03T01:00:59.056Z,3.34
2023-03-03T01:03:26.423Z,3.35
2023-03-03T01:05:54.367Z,3.34
2023-03-03T01:08:39.187Z,3.36
2023-03-03T01:11:26.681Z,3.38
2023-03-03T01:13:53.449Z,3.39
2023-03-03T01:16:20.428Z,3.41
2023-03-03T01:18:46.953Z,3.42
2023-03-03T01:21:13.712Z,3.36
2023-03-03T01:23:40.251Z,3.37
2023-03-03T01:26:07.031Z,3.37
2023-03-03T01:28:34.192Z,3.38
2023-03-03T01:31:02.710Z,3.41
2023-03-03T01:33:29.729Z,3.40
2023-03-03T01:36:34.533Z,3.33
2023-03-03T01:39:01.248Z,3.31
2023-03-03T01:41:33.879Z,3.29
2023-03-03T01:44:00.502Z,3.30
2023-03-03T01:46:44.998Z,3.35
2023-03-03T01:49:19.311Z,3.40
2023-03-03T01:51:51.830Z,3.42
2023-03-03T01:54:25.215Z,3.39
2023-03-03T01:56:57.780Z,3.34
2023-03-03T01:59:29.348Z,3.37
2023-03-03T02:01:56.011Z,3.40
2023-03-03T02:04:22.976Z,3.25
2023-03-03T02:06:58.067Z,3.30
2023-03-03T02:09:43.819Z,3.23
2023-03-03T02:12:13.773Z,3.24
2023-03-03T02:14:40.222Z,3.28
2023-03-03T02:17:06.905Z,3.30
2023-03-03T02:19:50.118Z,3.28
2023-03-03T02:22:21.894Z,3.30
2023-03-03T02:24:53.347Z,3.26
2023-03-03T02:27:19.861Z,3.24
2023-03-03T02:29:46.386Z,3.26
2023-03-03T02:32:12.984Z,3.26
2023-03-03T02:34:50.773Z,3.30
2023-03-03T02:37:18.245Z,3.23
2023-03-03T02:39:45.071Z,3.23
2023-03-03T02:42:17.525Z,3.23
2023-03-03T02:44:44.061Z,3.26
2023-03-03T02:47:10.582Z,3.22
2023-03-03T02:49:37.468Z,3.18
2023-03-03T02:52:07.142Z,3.19
2023-03-03T02:54:33.644Z,3.16
2023-03-03T02:57:01.099Z,3.15
2023-03-03T02:59:28.355Z,3.10
2023-03-03T03:01:55.116Z,3.07
2023-03-03T03:04:23.866Z,3.02
2023-03-03T03:06:51.322Z,2.98
2023-03-03T03:09:19.356Z,2.95
2023-03-03T03:11:45.947Z,2.98
2023-03-03T03:14:13.674Z,3.03
2023-03-03T03:16:40.914Z,3.02
2023-03-03T03:19:08.254Z,2.97
2023-03-03T03:21:35.112Z,2.94
2023-03-03T03:24:44.277Z,2.91
2023-03-03T03:27:10.753Z,2.90
2023-03-03T03:30:30.755Z,2.87
2023-03-03T03:32:57.254Z,2.88
2023-03-03T03:35:23.716Z,2.89
2023-03-03T03:37:50.204Z,2.81
2023-03-03T03:40:16.741Z,2.78
2023-03-03T03:42:49.318Z,2.70
2023-03-03T03:45:15.893Z,2.68
2023-03-03T03:47:42.689Z,2.64
2023-03-03T03:50:10.151Z,2.63
2023-03-03T03:52:36.823Z,2.66
2023-03-03T03:55:04.152Z,2.68
2023-03-03T03:57:30.710Z,2.72
2023-03-03T03:59:57.520Z,2.70
2023-03-03T04:02:24.081Z,2.73
2023-03-03T04:04:50.627Z,2.77
2023-03-03T04:07:17.161Z,2.77
2023-03-03T04:09:43.612Z,2.73
2023-03-03T04:12:10.046Z,2.72
2023-03-03T04:14:36.613Z,2.76
2023-03-03T04:17:03.085Z,2.77
2023-03-03T04:19:29.554Z,2.74
2023-03-03T04:21:56.025Z,2.77
2023-03-03T04:24:22.533Z,2.73
2023-03-03T04:26:48.983Z,2.71
2023-03-03T04:29:15.427Z,2.76
2023-03-03T04:31:41.942Z,2.76
2023-03-03T04:34:08.481Z,2.74
2023-03-03T04:36:34.914Z,2.73
2023-03-03T04:39:01.341Z,2.71
2023-03-03T04:41:27.770Z,2.74
2023-03-03T04:43:54.260Z,2.76
2023-03-03T04:46:20.726Z,2.76
2023-03-03T04:48:47.264Z,2.76
2023-03-03T04:51:14.923Z,2.72
2023-03-03T04:53:41.373Z,2.72
2023-03-03T04:56:08.194Z,2.72
2023-03-03T04:58:34.738Z,2.72
2023-03-03T05:01:01.271Z,2.71
2023-03-03T05:03:27.943Z,2.72
2023-03-03T05:05:54.530Z,2.73
2023-03-03T05:08:21.097Z,2.68
2023-03-03T05:10:51.824Z,2.67
2023-03-03T05:13:18.390Z,2.68
2023-03-03T05:15:52.747Z,2.74
2023-03-03T05:18:19.921Z,2.73
2023-03-03T05:21:02.324Z,2.73
2023-03-03T05:23:29.060Z,2.70
2023-03-03T05:25:55.554Z,2.70
2023-03-03T05:28:22.352Z,2.77
2023-03-03T05:30:49.123Z,2.75
2023-03-03T05:33:18.837Z,2.76
2023-03-03T05:36:03.720Z,2.78
2023-03-03T05:38:30.184Z,2.76
2023-03-03T05:40:56.767Z,2.79
2023-03-03T05:43:23.229Z,2.81
2023-03-03T05:45:55.639Z,2.83
2023-03-03T05:48:30.927Z,2.86
2023-03-03T05:51:00.804Z,2.82
2023-03-03T05:56:25.542Z,2.76
2023-03-03T05:59:03.721Z,2.77
2023-03-03T06:01:30.459Z,2.80
2023-03-03T06:04:15.023Z,2.81
2023-03-03T06:06:41.598Z,2.81
2023-03-03T06:09:08.126Z,2.81
2023-03-03T06:11:34.596Z,2.88
2023-03-03T06:14:01.075Z,2.90
2023-03-03T06:16:27.571Z,2.87
2023-03-03T06:18:54.079Z,2.86
2023-03-03T06:21:20.532Z,2.86
2023-03-03T06:23:47.012Z,2.87
2023-03-03T06:26:13.506Z,2.86
2023-03-03T06:28:39.941Z,2.87
2023-03-03T06:31:06.380Z,2.83
2023-03-03T06:33:32.797Z,2.83
2023-03-03T06:35:59.532Z,2.84
2023-03-03T06:38:26.029Z,2.85
2023-03-03T06:40:52.581Z,2.91
2023-03-03T06:43:19.055Z,2.91
2023-03-03T06:49:17.758Z,2.99
2023-03-03T06:51:46.229Z,3.00
2023-03-03T06:54:30.601Z,3.01
2023-03-03T06:57:05.589Z,3.02
2023-03-03T06:59:32.084Z,3.06
2023-03-03T07:01:58.582Z,3.02
2023-03-03T07:04:31.103Z,3.03
2023-03-03T07:07:00.277Z,3.06
2023-03-03T07:09:30.125Z,3.06
2023-03-03T07:12:19.058Z,3.09
2023-03-03T07:14:55.412Z,3.10
2023-03-03T07:17:24.790Z,3.15
2023-03-03T07:19:51.678Z,3.18
2023-03-03T07:22:25.269Z,3.15
2023-03-03T07:24:57.090Z,3.13
2023-03-03T07:27:30.664Z,3.11
2023-03-03T07:30:27.497Z,3.09
2023-03-03T07:32:58.690Z,3.08
2023-03-03T07:35:40.985Z,3.08
2023-03-03T07:38:25.015Z,3.13
2023-03-03T07:40:55.260Z,3.13
2023-03-03T07:43:38.076Z,3.14
2023-03-03T07:46:10.617Z,3.17
2023-03-03T07:48:42.569Z,3.19
2023-03-03T07:51:20.012Z,3.15
2023-03-03T07:53:47.441Z,3.13
2023-03-03T07:56:20.662Z,3.16
2023-03-03T07:58:47.484Z,3.16
2023-03-03T08:01:28.893Z,3.20
2023-03-03T08:03:56.500Z,3.20
2023-03-03T08:06:32.722Z,3.22
2023-03-03T08:09:18.745Z,3.22
2023-03-03T08:12:14.493Z,3.24
2023-03-03T08:14:40.956Z,3.26
2023-03-03T08:17:17.794Z,3.28
2023-03-03T08:19:44.259Z,3.29
2023-03-03T08:22:16.264Z,3.32
2023-03-03T08:24:42.824Z,3.37
2023-03-03T08:27:09.381Z,3.35
2023-03-03T08:29:35.931Z,3.39
2023-03-03T08:32:02.601Z,3.40
2023-03-03T08:34:29.143Z,3.40
2023-03-03T08:36:58.148Z,3.39
2023-03-03T08:39:24.701Z,3.42
2023-03-03T08:41:51.269Z,3.42
2023-03-03T08:44:17.790Z,3.45
2023-03-03T08:46:44.469Z,3.43
2023-03-03T08:49:10.994Z,3.44
2023-03-03T08:51:37.560Z,3.42
2023-03-03T08:54:04.116Z,3.46
2023-03-03T08:56:30.568Z,3.51
2023-03-03T08:59:02.560Z,3.56
2023-03-03T09:01:31.018Z,3.57
2023-03-03T09:03:57.589Z,3.55
2023-03-03T09:06:24.138Z,3.62
2023-03-03T09:08:50.961Z,3.60
2023-03-03T09:11:24.252Z,3.62
2023-03-03T09:13:53.287Z,3.59
2023-03-03T09:16:22.215Z,3.66
2023-03-03T09:18:48.783Z,3.64
2023-03-03T09:21:28.940Z,3.64
2023-03-03T09:24:01.711Z,3.65
2023-03-03T09:26:29.618Z,3.71
2023-03-03T09:29:14.310Z,3.72
2023-03-03T09:31:45.468Z,3.75
2023-03-03T09:34:37.165Z,3.73
2023-03-03T09:37:28.631Z,3.81
2023-03-03T09:39:57.442Z,3.82
2023-03-03T09:42:29.688Z,3.81
2023-03-03T09:45:17.960Z,3.88
2023-03-03T09:48:18.168Z,3.91
2023-03-03T09:51:03.401Z,3.95
2023-03-03T09:53:51.665Z,3.99
2023-03-03T09:56:23.976Z,4.08
2023-03-03T09:59:42.322Z,4.13
2023-03-03T10:02:36.082Z,4.16
2023-03-03T10:05:14.312Z,4.24
2023-03-03T10:07:46.933Z,4.30
2023-03-03T10:10:35.204Z,4.32
2023-03-03T10:13:19.385Z,4.34
2023-03-03T10:16:17.561Z,4.38
2023-03-03T10:19:01.031Z,4.36
2023-03-03T10:21:39.679Z,4.39
2023-03-03T10:24:38.131Z,4.37
2023-03-03T10:27:36.716Z,4.30
2023-03-03T10:30:41.250Z,4.29
2023-03-03T10:33:26.374Z,4.31
2023-03-03T10:36:30.888Z,4.29
2023-03-03T10:39:34.825Z,4.33
2023-03-03T10:42:16.618Z,4.33
2023-03-03T10:44:58.879Z,4.38
2023-03-03T10:47:47.011Z,4.45
2023-03-03T10:50:55.792Z,4.48
2023-03-03T10:53:31.693Z,4.54
2023-03-03T10:56:01.166Z,4.57
2023-03-03T10:58:30.607Z,4.54
2023-03-03T11:01:45.311Z,4.52
2023-03-03T11:04:33.690Z,4.59
2023-03-03T11:07:47.739Z,4.66
2023-03-03T11:10:35.719Z,4.77
2023-03-03T11:13:32.350Z,4.76
2023-03-03T11:16:34.499Z,4.87
2023-03-03T11:19:11.356Z,4.95
2023-03-03T11:21:46.785Z,4.91
2023-03-03T11:24:19.242Z,4.96
2023-03-03T11:26:51.767Z,5.01
2023-03-03T11:29:21.300Z,5.03
2023-03-03T11:31:57.628Z,5.00
2023-03-03T11:34:47.200Z,5.08
2023-03-03T11:38:09.474Z,5.13
2023-03-03T11:40:49.318Z,5.12
2023-03-03T11:43:36.230Z,5.00
2023-03-03T11:46:11.526Z,4.99
2023-03-03T11:49:00.763Z,5.14
2023-03-03T11:51:48.732Z,5.23
2023-03-03T11:54:28.959Z,5.30
2023-03-03T11:57:12.006Z,5.27
2023-03-03T11:59:47.264Z,5.36
2023-03-03T12:02:16.606Z,5.40
2023-03-03T12:04:54.292Z,5.53
2023-03-03T12:07:57.686Z,5.65
2023-03-03T12:10:31.049Z,5.70
2023-03-03T12:13:16.391Z,5.81
2023-03-03T12:16:25.359Z,5.90
2023-03-03T12:19:18.109Z,5.98
2023-03-03T12:21:56.665Z,5.98
2023-03-03T12:24:23.093Z,6.00
2023-03-03T12:27:02.120Z,6.12
2023-03-03T12:29:41.418Z,6.24
2023-03-03T12:32:30.598Z,6.29
2023-03-03T12:35:41.922Z,6.36
2023-03-03T12:38:28.588Z,6.58
2023-03-03T12:41:08.650Z,7.10
2023-03-03T12:44:00.142Z,7.67
2023-03-03T12:46:29.948Z,8.13
2023-03-03T12:48:56.698Z,8.70
2023-03-03T12:51:41.285Z,8.64
2023-03-03T12:54:26.561Z,8.81
2023-03-03T12:57:03.698Z,9.61
2023-03-03T13:00:11.698Z,10.30
2023-03-03T13:02:58.584Z,10.92
2023-03-03T13:05:45.777Z,11.35
2023-03-03T13:08:23.748Z,11.40
2023-03-03T13:11:00.363Z,11.69
2023-03-03T13:13:29.739Z,12.21
2023-03-03T13:16:06.543Z,12.76
2023-03-03T13:18:49.292Z,13.08
2023-03-03T13:21:34.968Z,13.12
2023-03-03T13:24:32.746Z,13.30
2023-03-03T13:27:07.361Z,13.65
2023-03-03T13:29:36.441Z,14.19
2023-03-03T13:32:17.436Z,15.15
2023-03-03T13:34:58.760Z,15.38
2023-03-03T13:37:46.822Z,15.27
2023-03-03T13:40:13.395Z,14.98
2023-03-03T13:42:45.501Z,15.31
2023-03-03T13:45:31.130Z,15.77
2023-03-03T13:48:00.783Z,16.06
2023-03-03T13:50:36.760Z,16.25
2023-03-03T13:53:38.635Z,16.57
2023-03-03T13:56:13.860Z,17.24
2023-03-03T13:59:04.494Z,17.63
2023-03-03T14:01:34.008Z,18.15
2023-03-03T14:04:03.600Z,18.28
2023-03-03T14:06:30.399Z,18.64
2023-03-03T14:09:04.673Z,18.90
2023-03-03T14:11:43.078Z,19.36
2023-03-03T14:14:28.480Z,19.06
2023-03-03T14:17:04.244Z,19.44
2023-03-03T14:19:54.247Z,18.80
2023-03-03T14:22:46.863Z,18.77
2023-03-03T14:25:15.673Z,19.10
2023-03-03T14:27:48.350Z,18.14
2023-03-03T14:30:43.876Z,17.49
2023-03-03T14:33:10.321Z,17.85
2023-03-03T14:35:56.602Z,17.49
2023-03-03T14:38:45.073Z,15.91
2023-03-03T14:41:11.881Z,16.31
2023-03-03T14:43:39.394Z,16.40
2023-03-03T14:46:27.393Z,15.89
2023-03-03T14:48:56.596Z,15.59
2023-03-03T14:51:27.171Z,14.90
2023-03-03T14:53:53.881Z,14.48
2023-03-03T14:56:30.752Z,13.97
2023-03-03T14:59:18.254Z,13.64
2023-03-03T15:01:45.110Z,13.78
2023-03-03T15:04:14.421Z,13.84
2023-03-03T15:06:43.741Z,13.87
2023-03-03T15:09:30.444Z,13.79
2023-03-03T15:11:58.721Z,13.87
2023-03-03T15:14:45.769Z,13.80
2023-03-03T15:17:38.101Z,13.84
2023-03-03T15:20:22.677Z,13.73
2023-03-03T15:23:19.556Z,13.22
2023-03-03T15:25:58.936Z,12.84
2023-03-03T15:28:56.023Z,12.47
2023-03-03T15:31:30.262Z,12.23
2023-03-03T15:34:28.032Z,12.10
2023-03-03T15:37:13.243Z,12.02
2023-03-03T15:40:13.436Z,12.06
2023-03-03T15:42:46.609Z,11.93
2023-03-03T15:45:29.305Z,11.87
2023-03-03T15:48:07.640Z,11.69
2023-03-03T15:50:47.074Z,11.61
2023-03-03T15:53:37.765Z,11.41
2023-03-03T15:56:16.327Z,11.15
2023-03-03T15:59:04.434Z,11.00
2023-03-03T16:01:34.611Z,10.89
2023-03-03T16:04:09.596Z,10.76
2023-03-03T16:07:22.200Z,10.50
2023-03-03T16:09:57.744Z,10.32
2023-03-03T16:12:47.874Z,10.01
2023-03-03T16:15:17.507Z,9.92
2023-03-03T16:18:08.780Z,9.78
2023-03-03T16:20:40.359Z,9.60
2023-03-03T16:23:31.210Z,9.51
2023-03-03T16:26:35.539Z,9.34
2023-03-03T16:29:20.020Z,9.27
2023-03-03T16:32:12.692Z,9.09
2023-03-03T16:34:58.878Z,9.12
2023-03-03T16:37:36.158Z,9.07
2023-03-03T16:40:23.747Z,9.00
2023-03-03T16:42:59.204Z,8.78
2023-03-03T16:45:31.086Z,8.61
2023-03-03T16:47:57.543Z,8.52
2023-03-03T16:50:48.917Z,8.43
2023-03-03T16:53:18.325Z,8.38
2023-03-03T16:56:08.268Z,8.34
2023-03-03T16:58:41.749Z,8.25
2023-03-03T17:01:11.337Z,8.13
2023-03-03T17:03:50.774Z,7.90
2023-03-03T17:06:35.741Z,7.73
2023-03-03T17:09:31.535Z,7.64
2023-03-03T17:12:23.272Z,7.59
2023-03-03T17:14:55.897Z,7.53
2023-03-03T17:17:33.903Z,7.43
2023-03-03T17:20:22.161Z,7.38
2023-03-03T17:23:08.821Z,7.28
2023-03-03T17:25:39.453Z,7.17
2023-03-03T17:28:15.003Z,7.07
2023-03-03T17:30:56.361Z,7.03
2023-03-03T17:33:51.363Z,6.94
2023-03-03T17:36:28.862Z,6.84
2023-03-03T17:38:57.992Z,6.77
2023-03-03T17:42:01.973Z,6.66
2023-03-03T17:44:39.420Z,6.55
2023-03-03T17:47:10.073Z,6.48
2023-03-03T17:49:51.424Z,6.42
2023-03-03T17:52:36.714Z,6.36
2023-03-03T17:55:40.820Z,6.30
2023-03-03T17:58:34.449Z,6.23
2023-03-03T18:01:17.674Z,6.14
2023-03-03T18:03:56.241Z,6.15
2023-03-03T18:06:55.808Z,6.11
2023-03-03T18:09:48.126Z,6.10
2023-03-03T18:12:36.912Z,6.10
2023-03-03T18:15:17.176Z,6.14
2023-03-03T18:18:01.747Z,6.16
2023-03-03T18:21:01.852Z,6.02
2023-03-03T18:23:28.239Z,6.09
2023-03-03T18:26:00.610Z,6.13
2023-03-03T18:29:27.068Z,6.16
2023-03-03T18:31:53.655Z,6.19
2023-03-03T18:34:20.154Z,6.21
2023-03-03T18:37:19.104Z,6.23
2023-03-03T18:40:09.544Z,6.21
2023-03-03T18:42:40.788Z,6.29
2023-03-03T18:45:20.088Z,6.36
2023-03-03T18:48:09.567Z,6.25
2023-03-03T18:50:42.198Z,6.20
2023-03-03T18:53:14.578Z,6.15
2023-03-03T18:55:44.713Z,6.16
2023-03-03T18:58:14.150Z,6.22
2023-03-03T19:00:50.009Z,6.29
2023-03-03T19:03:54.745Z,6.35
2023-03-03T19:06:32.484Z,6.37
2023-03-03T19:08:59.450Z,6.41
2023-03-03T19:11:51.767Z,6.43
2023-03-03T19:14:39.718Z,6.42
2023-03-03T19:17:18.337Z,6.36
2023-03-03T19:20:12.807Z,6.31
2023-03-03T19:22:46.746Z,6.32
2023-03-03T19:25:18.394Z,6.37
2023-03-03T19:27:59.967Z,6.28
2023-03-03T19:31:05.114Z,6.32
2023-03-03T19:33:46.860Z,6.41
2023-03-03T19:36:32.009Z,6.46
2023-03-03T19:39:01.513Z,6.26
2023-03-03T19:41:56.196Z,6.16
2023-03-03T19:44:53.359Z,6.14
2023-03-03T19:47:33.531Z,6.01
2023-03-03T19:50:12.028Z,6.01
2023-03-03T19:52:45.784Z,6.04
2023-03-03T19:55:33.240Z,6.06
2023-03-03T19:58:09.147Z,6.02
2023-03-03T20:00:43.632Z,6.00
2023-03-03T20:03:28.668Z,6.09
2023-03-03T20:06:30.030Z,6.09
2023-03-03T20:09:26.823Z,5.98
2023-03-03T20:12:05.699Z,5.91
2023-03-03T20:14:45.430Z,5.93
2023-03-03T20:17:21.405Z,5.88
2023-03-03T20:20:13.176Z,5.94
2023-03-03T20:23:02.380Z,5.89
2023-03-03T20:25:35.754Z,5.93
2023-03-03T20:28:27.077Z,5.94
2023-03-03T20:31:25.844Z,5.98
2023-03-03T20:34:01.213Z,6.08
2023-03-03T20:36:32.211Z,6.06
2023-03-03T20:39:01.398Z,6.13
2023-03-03T20:41:27.847Z,6.19
2023-03-03T20:44:26.307Z,6.17
2023-03-03T20:47:11.542Z,6.18
2023-03-03T20:49:40.874Z,6.09
2023-03-03T20:52:16.313Z,6.09
2023-03-03T20:54:57.225Z,6.00
2023-03-03T20:57:42.108Z,6.06
2023-03-03T21:00:21.163Z,6.10
2023-03-03T21:02:50.750Z,6.15
2023-03-03T21:05:22.550Z,6.22
2023-03-03T21:07:56.533Z,6.24
2023-03-03T21:10:26.509Z,6.27
2023-03-03T21:12:58.749Z,6.34
2023-03-03T21:15:35.595Z,6.49
2023-03-03T21:18:20.978Z,6.58
2023-03-03T21:20:47.537Z,6.67
2023-03-03T21:23:14.508Z,6.73
2023-03-03T21:25:41.117Z,6.79
2023-03-03T21:28:21.163Z,6.80
2023-03-03T21:31:00.658Z,6.77
2023-03-03T21:33:42.148Z,6.77
2023-03-03T21:36:14.783Z,6.79
2023-03-03T21:38:41.363Z,6.79
2023-03-03T21:41:08.632Z,6.82
2023-03-03T21:43:37.505Z,6.84
2023-03-03T21:46:04.233Z,6.89
2023-03-03T21:48:30.783Z,6.87
2023-03-03T21:50:57.307Z,6.91
2023-03-03T21:53:24.168Z,6.94
2023-03-03T21:55:51.084Z,6.97
2023-03-03T21:58:17.564Z,6.98
2023-03-03T22:00:44.540Z,6.95
2023-03-03T22:03:12.184Z,6.94
2023-03-03T22:05:38.678Z,6.95
2023-03-03T22:08:05.363Z,6.98
2023-03-03T22:10:32.128Z,7.02
2023-03-03T22:12:58.563Z,7.01
2023-03-03T22:15:25.189Z,7.05
2023-03-03T22:17:51.698Z,7.06
2023-03-03T22:20:18.275Z,7.03
2023-03-03T22:22:44.829Z,7.03
2023-03-03T22:25:11.379Z,7.04
2023-03-03T22:27:37.837Z,7.09
2023-03-03T22:30:04.773Z,7.03
2023-03-03T22:32:31.239Z,7.04
2023-03-03T22:34:57.723Z,7.07
2023-03-03T22:37:24.189Z,6.98
2023-03-03T22:39:50.662Z,7.05
2023-03-03T22:42:17.135Z,6.96
2023-03-03T22:44:45.815Z,7.02
2023-03-03T22:47:12.472Z,6.96
2023-03-03T22:49:38.947Z,6.95
2023-03-03T22:52:05.505Z,6.94
2023-03-03T22:54:32.014Z,6.96
2023-03-03T22:56:58.468Z,6.94
2023-03-03T22:59:24.915Z,6.92
2023-03-03T23:01:51.362Z,6.90
2023-03-03T23:04:20.091Z,6.92
2023-03-03T23:06:46.596Z,6.94
2023-03-03T23:09:13.136Z,6.92
2023-03-03T23:11:39.599Z,6.93
2023-03-03T23:14:06.152Z,6.92
2023-03-03T23:16:32.702Z,6.92
2023-03-03T23:18:59.218Z,6.91
2023-03-03T23:21:25.694Z,6.91
2023-03-03T23:23:52.225Z,6.89
2023-03-03T23:26:18.704Z,6.87
2023-03-03T23:28:45.144Z,6.89
2023-03-03T23:31:11.622Z,6.86
2023-03-03T23:33:38.068Z,6.89
2023-03-03T23:36:04.857Z,6.89
2023-03-03T23:38:31.351Z,6.90
2023-03-03T23:40:57.811Z,6.87
2023-03-03T23:43:24.333Z,6.84
2023-03-03T23:45:50.852Z,6.80
2023-03-03T23:48:17.314Z,6.80
2023-03-03T23:50:43.797Z,6.82
2023-03-03T23:53:10.255Z,6.80
2023-03-03T23:55:37.663Z,6.82
2023-03-03T23:58:05.317Z,6.85
